createdAt,value
2017-06-24T00:00:45.638Z,1016.37
2017-06-24T00:01:47.505Z,1016.35
2017-06-24T00:02:49.394Z,1016.30
2017-06-24T00:03:51.256Z,1016.32
2017-06-24T00:04:53.055Z,1016.29
2017-06-24T00:05:54.857Z,1016.28
2017-06-24T00:06:56.721Z,1016.32
2017-06-24T00:07:58.609Z,1016.28
2017-06-24T00:09:00.493Z,1016.30
2017-06-24T00:10:14.627Z,1016.30
2017-06-24T00:11:16.510Z,1016.32
2017-06-24T00:12:18.373Z,1016.33
2017-06-24T00:13:20.232Z,1016.32
2017-06-24T00:14:22.039Z,1016.27
2017-06-24T00:15:23.856Z,1016.28
2017-06-24T00:16:25.725Z,1016.32
2017-06-24T00:17:27.611Z,1016.32
2017-06-24T00:18:29.499Z,1016.29
2017-06-24T00:19:43.653Z,1016.26
2017-06-24T00:20:45.537Z,1016.30
2017-06-24T00:21:47.420Z,1016.30
2017-06-24T00:22:49.286Z,1016.29
2017-06-24T00:23:51.084Z,1016.28
2017-06-24T00:24:52.883Z,1016.28
2017-06-24T00:25:54.745Z,1016.30
2017-06-24T00:26:56.612Z,1016.28
2017-06-24T00:27:58.474Z,1016.28
2017-06-24T00:29:12.610Z,1016.29
2017-06-24T00:30:14.471Z,1016.30
2017-06-24T00:31:16.332Z,1016.26
2017-06-24T00:32:18.219Z,1016.29
2017-06-24T00:33:20.044Z,1016.24
2017-06-24T00:34:21.844Z,1016.24
2017-06-24T00:35:23.706Z,1016.25
2017-06-24T00:36:25.576Z,1016.23
2017-06-24T00:37:27.441Z,1016.21
2017-06-24T00:38:41.599Z,1016.21
2017-06-24T00:39:43.479Z,1016.21
2017-06-24T00:40:45.345Z,1016.22
2017-06-24T00:41:47.231Z,1016.21
2017-06-24T00:42:49.058Z,1016.18
2017-06-24T00:43:50.880Z,1016.20
2017-06-24T00:44:52.763Z,1016.21
2017-06-24T00:45:54.626Z,1016.20
2017-06-24T00:46:56.492Z,1016.26
2017-06-24T00:48:10.625Z,1016.24
2017-06-24T00:49:12.508Z,1016.27
2017-06-24T00:50:14.397Z,1016.24
2017-06-24T00:51:16.279Z,1016.24
2017-06-24T00:52:18.097Z,1016.24
2017-06-24T00:53:19.898Z,1016.22
2017-06-24T00:54:21.769Z,1016.22
2017-06-24T00:55:23.652Z,1016.21
2017-06-24T00:56:25.517Z,1016.21
2017-06-24T00:57:39.674Z,1016.22
2017-06-24T00:58:41.555Z,1016.18
2017-06-24T00:59:43.443Z,1016.21
2017-06-24T01:00:45.308Z,1016.22
2017-06-24T01:01:47.112Z,1016.21
2017-06-24T01:02:48.934Z,1016.21
2017-06-24T01:03:50.800Z,1016.17
2017-06-24T01:04:52.689Z,1016.16
2017-06-24T01:05:54.552Z,1016.21
2017-06-24T01:07:08.683Z,1016.19
2017-06-24T01:08:10.548Z,1016.20
2017-06-24T01:09:12.415Z,1016.21
2017-06-24T01:10:14.274Z,1016.21
2017-06-24T01:11:16.081Z,1016.22
2017-06-24T01:12:17.879Z,1016.24
2017-06-24T01:13:19.764Z,1016.25
2017-06-24T01:14:21.625Z,1016.22
2017-06-24T01:15:23.489Z,1016.22
2017-06-24T01:16:37.624Z,1016.23
2017-06-24T01:17:39.502Z,1016.24
2017-06-24T01:18:41.373Z,1016.22
2017-06-24T01:19:43.262Z,1016.18
2017-06-24T01:20:45.090Z,1016.22
2017-06-24T01:21:46.910Z,1016.19
2017-06-24T01:22:48.794Z,1016.20
2017-06-24T01:23:50.677Z,1016.17
2017-06-24T01:24:52.544Z,1016.14
2017-06-24T01:26:06.701Z,1016.15
2017-06-24T01:27:08.586Z,1016.12
2017-06-24T01:28:10.471Z,1016.08
2017-06-24T01:29:12.356Z,1016.13
2017-06-24T01:30:14.174Z,1016.12
2017-06-24T01:31:15.998Z,1016.13
2017-06-24T01:32:17.875Z,1016.12
2017-06-24T01:33:19.740Z,1016.11
2017-06-24T01:34:21.602Z,1016.05
2017-06-24T01:35:35.733Z,1016.07
2017-06-24T01:36:37.601Z,1016.10
2017-06-24T01:37:39.469Z,1016.08
2017-06-24T01:38:41.354Z,1016.10
2017-06-24T01:39:43.169Z,1016.11
2017-06-24T01:40:44.972Z,1016.11
2017-06-24T01:41:46.857Z,1016.04
2017-06-24T01:42:48.738Z,1016.06
2017-06-24T01:43:50.596Z,1016.07
2017-06-24T01:45:04.730Z,1016.01
2017-06-24T01:46:06.613Z,1016.07
2017-06-24T01:47:08.499Z,1016.06
2017-06-24T01:48:10.380Z,1016.07
2017-06-24T01:49:12.176Z,1016.06
2017-06-24T01:50:13.972Z,1016.04
2017-06-24T01:51:15.842Z,1016.07
2017-06-24T01:52:17.726Z,1016.05
2017-06-24T01:53:19.615Z,1016.05
2017-06-24T01:54:33.767Z,1016.06
2017-06-24T01:55:35.650Z,1016.07
2017-06-24T01:56:37.536Z,1016.10
2017-06-24T01:57:39.415Z,1016.08
2017-06-24T01:58:41.215Z,1016.09
2017-06-24T01:59:43.035Z,1016.12
2017-06-24T02:00:44.900Z,1016.10
2017-06-24T02:01:46.788Z,1016.13
2017-06-24T02:02:48.673Z,1016.09
2017-06-24T02:04:02.825Z,1016.09
2017-06-24T02:05:04.708Z,1016.10
2017-06-24T02:06:06.568Z,1016.12
2017-06-24T02:07:08.450Z,1016.14
2017-06-24T02:08:10.248Z,1016.12
2017-06-24T02:09:12.048Z,1016.12
2017-06-24T02:10:13.908Z,1016.09
2017-06-24T02:11:15.772Z,1016.08
2017-06-24T02:12:17.638Z,1016.13
2017-06-24T02:13:31.791Z,1016.06
2017-06-24T02:14:33.654Z,1016.09
2017-06-24T02:15:35.516Z,1016.11
2017-06-24T02:16:37.383Z,1016.15
2017-06-24T02:17:39.204Z,1016.09
2017-06-24T02:18:41.019Z,1016.07
2017-06-24T02:19:42.897Z,1016.12
2017-06-24T02:20:44.748Z,1016.14
2017-06-24T02:21:46.616Z,1016.16
2017-06-24T02:23:00.776Z,1016.08
2017-06-24T02:24:02.655Z,1016.10
2017-06-24T02:25:04.519Z,1016.11
2017-06-24T02:26:06.388Z,1016.10
2017-06-24T02:27:08.208Z,1016.11
2017-06-24T02:28:10.028Z,1016.07
2017-06-24T02:29:11.894Z,1015.99
2017-06-24T02:30:13.779Z,1016.01
2017-06-24T02:31:15.663Z,1016.04
2017-06-24T02:32:29.802Z,1016.00
2017-06-24T02:33:31.667Z,1015.97
2017-06-24T02:34:33.551Z,1015.99
2017-06-24T02:35:35.438Z,1015.96
2017-06-24T02:36:37.257Z,1015.98
2017-06-24T02:37:39.062Z,1015.94
2017-06-24T02:38:40.950Z,1015.95
2017-06-24T02:39:42.818Z,1015.96
2017-06-24T02:40:44.666Z,1015.94
2017-06-24T02:41:58.825Z,1015.97
2017-06-24T02:43:00.712Z,1015.99
2017-06-24T02:44:02.601Z,1016.05
2017-06-24T02:45:04.491Z,1016.02
2017-06-24T02:46:06.310Z,1016.02
2017-06-24T02:47:08.115Z,1016.04
2017-06-24T02:48:09.985Z,1016.01
2017-06-24T02:49:11.829Z,1016.07
2017-06-24T02:50:13.689Z,1016.03
2017-06-24T02:51:27.820Z,1015.98
2017-06-24T02:52:29.690Z,1016.00
2017-06-24T02:53:31.572Z,1016.00
2017-06-24T02:54:33.437Z,1016.02
2017-06-24T02:55:35.235Z,1016.02
2017-06-24T02:56:37.043Z,1016.01
2017-06-24T02:57:38.928Z,1015.99
2017-06-24T02:58:40.797Z,1016.01
2017-06-24T02:59:42.685Z,1016.01
2017-06-24T03:00:56.840Z,1016.02
2017-06-24T03:01:58.726Z,1016.05
2017-06-24T03:03:00.612Z,1016.03
2017-06-24T03:04:02.477Z,1016.04
2017-06-24T03:05:04.281Z,1016.06
2017-06-24T03:06:06.085Z,1016.11
2017-06-24T03:07:07.952Z,1016.07
2017-06-24T03:08:09.823Z,1016.04
2017-06-24T03:09:11.714Z,1016.07
2017-06-24T03:10:25.869Z,1016.12
2017-06-24T03:11:27.734Z,1016.11
2017-06-24T03:12:29.625Z,1016.14
2017-06-24T03:13:31.511Z,1016.14
2017-06-24T03:14:33.314Z,1016.12
2017-06-24T03:15:35.133Z,1016.14
2017-06-24T03:16:37.006Z,1016.10
2017-06-24T03:17:38.874Z,1016.13
2017-06-24T03:18:40.767Z,1016.06
2017-06-24T03:19:54.925Z,1016.11
2017-06-24T03:20:56.812Z,1016.11
2017-06-24T03:21:58.677Z,1016.09
2017-06-24T03:23:00.545Z,1016.11
2017-06-24T03:24:02.351Z,1016.09
2017-06-24T03:25:04.174Z,1016.09
2017-06-24T03:26:06.065Z,1016.11
2017-06-24T03:27:07.948Z,1016.15
2017-06-24T03:28:09.818Z,1016.15
2017-06-24T03:29:23.949Z,1016.15
2017-06-24T03:30:25.823Z,1016.12
2017-06-24T03:31:27.705Z,1016.12
2017-06-24T03:32:29.576Z,1016.10
2017-06-24T03:33:31.402Z,1016.09
2017-06-24T03:34:33.207Z,1016.09
2017-06-24T03:35:35.072Z,1016.12
2017-06-24T03:36:36.936Z,1016.12
2017-06-24T03:37:38.809Z,1016.13
2017-06-24T03:38:52.963Z,1016.19
2017-06-24T03:39:54.833Z,1016.18
2017-06-24T03:40:56.696Z,1016.17
2017-06-24T03:41:58.566Z,1016.20
2017-06-24T03:43:00.372Z,1016.18
2017-06-24T03:44:02.199Z,1016.19
2017-06-24T03:45:04.092Z,1016.27
2017-06-24T03:46:05.979Z,1016.25
2017-06-24T03:47:07.850Z,1016.29
2017-06-24T03:48:22.014Z,1016.30
2017-06-24T03:49:23.901Z,1016.34
2017-06-24T03:50:25.768Z,1016.36
2017-06-24T03:51:27.654Z,1016.36
2017-06-24T03:52:29.461Z,1016.35
2017-06-24T03:53:31.287Z,1016.38
2017-06-24T03:54:33.174Z,1016.37
2017-06-24T03:55:35.042Z,1016.36
2017-06-24T03:56:36.932Z,1016.36
2017-06-24T03:57:51.090Z,1016.41
2017-06-24T03:58:52.958Z,1016.47
2017-06-24T03:59:54.847Z,1016.50
2017-06-24T04:00:56.737Z,1016.52
2017-06-24T04:01:58.560Z,1016.49
2017-06-24T04:03:00.361Z,1016.52
2017-06-24T04:04:02.237Z,1016.44
2017-06-24T04:05:04.123Z,1016.48
2017-06-24T04:06:05.994Z,1016.45
2017-06-24T04:07:20.131Z,1016.41
2017-06-24T04:08:22.005Z,1016.41
2017-06-24T04:09:23.894Z,1016.39
2017-06-24T04:10:25.789Z,1016.42
2017-06-24T04:11:27.614Z,1016.43
2017-06-24T04:12:29.422Z,1016.44
2017-06-24T04:13:31.312Z,1016.46
2017-06-24T04:14:33.187Z,1016.45
2017-06-24T04:15:35.076Z,1016.41
2017-06-24T04:16:49.235Z,1016.39
2017-06-24T04:17:51.108Z,1016.40
2017-06-24T04:18:52.972Z,1016.41
2017-06-24T04:19:54.839Z,1016.43
2017-06-24T04:20:56.644Z,1016.44
2017-06-24T04:21:58.455Z,1016.42
2017-06-24T04:23:00.349Z,1016.44
2017-06-24T04:24:02.238Z,1016.51
2017-06-24T04:25:04.109Z,1016.49
2017-06-24T04:26:18.249Z,1016.55
2017-06-24T04:27:20.115Z,1016.52
2017-06-24T04:28:21.987Z,1016.55
2017-06-24T04:29:23.857Z,1016.58
2017-06-24T04:30:25.659Z,1016.59
2017-06-24T04:31:27.465Z,1016.55
2017-06-24T04:32:29.274Z,1016.57
2017-06-24T04:33:31.083Z,1016.58
2017-06-24T04:34:32.913Z,1016.60
2017-06-24T04:35:47.075Z,1016.62
2017-06-24T04:36:48.968Z,1016.62
2017-06-24T04:37:50.861Z,1016.64
2017-06-24T04:38:52.747Z,1016.65
2017-06-24T04:39:54.565Z,1016.65
2017-06-24T04:40:56.386Z,1016.61
2017-06-24T04:41:58.263Z,1016.63
2017-06-24T04:43:00.154Z,1016.62
2017-06-24T04:44:02.050Z,1016.61
2017-06-24T04:45:16.267Z,1016.62
2017-06-24T04:46:18.163Z,1016.61
2017-06-24T04:47:20.054Z,1016.59
2017-06-24T04:48:21.926Z,1016.54
2017-06-24T04:49:23.734Z,1016.51
2017-06-24T04:50:25.537Z,1016.53
2017-06-24T04:51:27.415Z,1016.59
2017-06-24T04:52:29.308Z,1016.52
2017-06-24T04:53:31.209Z,1016.57
2017-06-24T04:54:45.366Z,1016.50
2017-06-24T04:55:47.241Z,1016.68
2017-06-24T04:56:49.136Z,1016.82
2017-06-24T04:57:51.006Z,1016.81
2017-06-24T04:58:52.837Z,1016.86
2017-06-24T04:59:54.667Z,1016.86
2017-06-24T05:00:56.558Z,1016.87
2017-06-24T05:01:58.434Z,1016.85
2017-06-24T05:03:00.326Z,1016.89
2017-06-24T05:04:14.479Z,1016.86
2017-06-24T05:05:16.370Z,1016.84
2017-06-24T05:06:18.244Z,1016.84
2017-06-24T05:07:20.140Z,1016.88
2017-06-24T05:08:21.946Z,1016.84
2017-06-24T05:09:23.755Z,1016.86
2017-06-24T05:10:25.629Z,1016.88
2017-06-24T05:11:27.521Z,1016.89
2017-06-24T05:12:29.421Z,1016.89
2017-06-24T05:13:43.594Z,1016.84
2017-06-24T05:14:45.487Z,1016.92
2017-06-24T05:15:47.377Z,1016.91
2017-06-24T05:16:49.248Z,1016.90
2017-06-24T05:17:51.059Z,1016.75
2017-06-24T05:18:52.889Z,1016.89
2017-06-24T05:19:54.765Z,1016.75
2017-06-24T05:20:56.634Z,1016.72
2017-06-24T05:21:58.514Z,1016.78
2017-06-24T05:23:12.683Z,1016.66
2017-06-24T05:24:14.552Z,1016.69
2017-06-24T05:25:16.449Z,1016.89
2017-06-24T05:26:18.350Z,1016.81
2017-06-24T05:27:20.183Z,1016.74
2017-06-24T05:28:22.019Z,1016.66
2017-06-24T05:29:23.891Z,1016.66
2017-06-24T05:30:25.786Z,1016.68
2017-06-24T05:31:27.658Z,1016.66
2017-06-24T05:32:41.820Z,1016.67
2017-06-24T05:33:43.670Z,1016.61
2017-06-24T05:34:45.567Z,1016.64
2017-06-24T05:35:47.467Z,1016.64
2017-06-24T05:36:49.296Z,1016.66
2017-06-24T05:37:51.112Z,1016.62
2017-06-24T05:38:52.978Z,1016.56
2017-06-24T05:39:54.856Z,1016.55
2017-06-24T05:40:56.749Z,1016.54
2017-06-24T05:42:10.902Z,1016.56
2017-06-24T05:43:12.791Z,1016.57
2017-06-24T05:44:14.667Z,1016.56
2017-06-24T05:45:16.539Z,1016.52
2017-06-24T05:46:18.348Z,1016.49
2017-06-24T05:47:20.181Z,1016.47
2017-06-24T05:48:22.040Z,1016.54
2017-06-24T05:49:23.889Z,1016.56
2017-06-24T05:50:25.722Z,1016.55
2017-06-24T05:51:39.886Z,1016.59
2017-06-24T05:52:41.758Z,1016.65
2017-06-24T05:53:43.649Z,1016.60
2017-06-24T05:54:45.523Z,1016.60
2017-06-24T05:55:47.354Z,1016.61
2017-06-24T05:56:49.186Z,1016.58
2017-06-24T05:57:51.079Z,1016.58
2017-06-24T05:58:52.949Z,1016.56
2017-06-24T05:59:54.825Z,1016.59
2017-06-24T06:01:08.986Z,1016.56
2017-06-24T06:02:10.858Z,1016.53
2017-06-24T06:03:12.729Z,1016.53
2017-06-24T06:04:14.598Z,1016.55
2017-06-24T06:05:16.410Z,1016.51
2017-06-24T06:06:18.241Z,1016.53
2017-06-24T06:07:20.117Z,1016.53
2017-06-24T06:08:22.014Z,1016.52
2017-06-24T06:09:23.905Z,1016.54
2017-06-24T06:10:38.044Z,1016.52
2017-06-24T06:11:39.919Z,1016.50
2017-06-24T06:12:41.809Z,1016.55
2017-06-24T06:13:43.679Z,1016.53
2017-06-24T06:14:45.522Z,1016.49
2017-06-24T06:15:47.319Z,1016.54
2017-06-24T06:16:49.189Z,1016.55
2017-06-24T06:17:51.054Z,1016.60
2017-06-24T06:18:52.925Z,1016.59
2017-06-24T06:20:07.066Z,1016.57
2017-06-24T06:21:08.936Z,1016.60
2017-06-24T06:22:10.805Z,1016.58
2017-06-24T06:23:12.682Z,1016.60
2017-06-24T06:24:14.511Z,1016.64
2017-06-24T06:25:16.340Z,1016.62
2017-06-24T06:26:18.213Z,1016.63
2017-06-24T06:27:20.085Z,1016.58
2017-06-24T06:28:21.984Z,1016.59
2017-06-24T06:29:36.120Z,1016.61
2017-06-24T06:30:37.995Z,1016.60
2017-06-24T06:31:39.888Z,1016.63
2017-06-24T06:32:41.776Z,1016.57
2017-06-24T06:33:43.606Z,1016.57
2017-06-24T06:34:45.416Z,1016.57
2017-06-24T06:35:47.295Z,1016.57
2017-06-24T06:36:49.186Z,1016.56
2017-06-24T06:37:51.057Z,1016.55
2017-06-24T06:39:05.196Z,1016.53
2017-06-24T06:40:07.074Z,1016.52
2017-06-24T06:41:09.376Z,1016.55
2017-06-24T06:42:11.260Z,1016.57
2017-06-24T06:43:13.201Z,1016.55
2017-06-24T06:44:15.040Z,1016.55
2017-06-24T06:45:16.942Z,1016.58
2017-06-24T06:46:18.826Z,1016.59
2017-06-24T06:47:20.702Z,1016.61
2017-06-24T06:48:34.849Z,1016.60
2017-06-24T06:49:36.716Z,1016.64
2017-06-24T06:50:38.592Z,1016.58
2017-06-24T06:51:40.485Z,1016.59
2017-06-24T06:52:42.313Z,1016.57
2017-06-24T06:53:44.138Z,1016.60
2017-06-24T06:54:46.009Z,1016.62
2017-06-24T06:55:47.885Z,1016.52
2017-06-24T06:56:49.777Z,1016.54
2017-06-24T06:58:03.917Z,1016.50
2017-06-24T06:59:05.789Z,1016.49
2017-06-24T07:00:07.686Z,1016.45
2017-06-24T07:01:09.577Z,1016.43
2017-06-24T07:02:11.407Z,1016.43
2017-06-24T07:03:13.233Z,1016.39
2017-06-24T07:04:15.106Z,1016.37
2017-06-24T07:05:16.992Z,1016.38
2017-06-24T07:06:18.898Z,1016.36
2017-06-24T07:07:33.085Z,1016.34
2017-06-24T07:08:34.977Z,1016.34
2017-06-24T07:09:36.874Z,1016.37
2017-06-24T07:10:38.767Z,1016.33
2017-06-24T07:11:40.574Z,1016.33
2017-06-24T07:12:42.384Z,1016.31
2017-06-24T07:13:44.253Z,1016.31
2017-06-24T07:14:46.124Z,1016.34
2017-06-24T07:15:47.999Z,1016.32
2017-06-24T07:17:02.160Z,1016.29
2017-06-24T07:18:04.047Z,1016.30
2017-06-24T07:19:05.922Z,1016.31
2017-06-24T07:20:07.790Z,1016.29
2017-06-24T07:21:09.598Z,1016.29
2017-06-24T07:22:11.407Z,1016.32
2017-06-24T07:23:13.306Z,1016.30
2017-06-24T07:24:15.204Z,1016.31
2017-06-24T07:25:17.085Z,1016.29
2017-06-24T07:26:31.229Z,1016.35
2017-06-24T07:27:33.226Z,1016.40
2017-06-24T07:28:35.144Z,1016.38
2017-06-24T07:29:37.035Z,1016.42
2017-06-24T07:30:38.863Z,1016.41
2017-06-24T07:31:40.686Z,1016.44
2017-06-24T07:32:42.563Z,1016.60
2017-06-24T07:33:44.455Z,1016.49
2017-06-24T07:34:46.346Z,1016.52
2017-06-24T07:36:00.492Z,1016.51
2017-06-24T07:37:02.363Z,1016.44
2017-06-24T07:38:04.248Z,1016.39
2017-06-24T07:39:06.118Z,1016.37
2017-06-24T07:40:07.929Z,1016.42
2017-06-24T07:41:09.755Z,1016.45
2017-06-24T07:42:11.652Z,1016.42
2017-06-24T07:43:13.543Z,1016.46
2017-06-24T07:44:15.434Z,1016.38
2017-06-24T07:45:29.582Z,1016.40
2017-06-24T07:46:31.474Z,1016.44
2017-06-24T07:47:33.338Z,1016.48
2017-06-24T07:48:35.211Z,1016.53
2017-06-24T07:49:37.040Z,1016.53
2017-06-24T07:50:38.853Z,1016.49
2017-06-24T07:51:40.746Z,1016.45
2017-06-24T07:52:42.639Z,1016.49
2017-06-24T07:53:44.514Z,1016.31
2017-06-24T07:54:58.680Z,1016.40
2017-06-24T07:56:00.575Z,1016.49
2017-06-24T07:57:02.470Z,1016.48
2017-06-24T07:58:04.353Z,1016.49
2017-06-24T07:59:06.208Z,1016.40
2017-06-24T08:00:08.040Z,1016.38
2017-06-24T08:01:09.945Z,1016.44
2017-06-24T08:02:11.832Z,1016.39
2017-06-24T08:03:13.792Z,1016.49
2017-06-24T08:04:28.197Z,1016.45
2017-06-24T08:05:30.115Z,1016.40
2017-06-24T08:06:32.031Z,1016.36
2017-06-24T08:07:34.009Z,1016.32
2017-06-24T08:08:35.879Z,1016.24
2017-06-24T08:09:37.719Z,1016.35
2017-06-24T08:10:39.624Z,1016.40
2017-06-24T08:11:41.627Z,1016.36
2017-06-24T08:12:43.585Z,1016.36
2017-06-24T08:13:57.848Z,1016.42
2017-06-24T08:14:59.735Z,1016.35
2017-06-24T08:16:01.608Z,1016.44
2017-06-24T08:17:03.484Z,1016.40
2017-06-24T08:18:05.740Z,1016.33
2017-06-24T08:19:07.525Z,1016.33
2017-06-24T08:20:09.424Z,1016.26
2017-06-24T08:21:11.310Z,1016.29
2017-06-24T08:22:13.180Z,1016.27
2017-06-24T08:23:27.341Z,1016.18
2017-06-24T08:24:29.289Z,1016.13
2017-06-24T08:25:31.181Z,1016.11
2017-06-24T08:26:33.078Z,1016.16
2017-06-24T08:27:34.904Z,1016.14
2017-06-24T08:28:36.736Z,1016.15
2017-06-24T08:29:38.610Z,1016.15
2017-06-24T08:30:40.515Z,1016.19
2017-06-24T08:31:42.408Z,1016.13
2017-06-24T08:32:56.581Z,1016.06
2017-06-24T08:33:58.477Z,1016.00
2017-06-24T08:35:00.387Z,1016.04
2017-06-24T08:36:02.274Z,1016.08
2017-06-24T08:37:04.090Z,1016.12
2017-06-24T08:38:05.929Z,1016.04
2017-06-24T08:39:07.822Z,1015.96
2017-06-24T08:40:09.718Z,1016.00
2017-06-24T08:41:11.618Z,1015.98
2017-06-24T08:42:25.786Z,1016.08
2017-06-24T08:43:28.114Z,1016.08
2017-06-24T08:44:30.093Z,1016.04
2017-06-24T08:45:31.972Z,1016.06
2017-06-24T08:46:33.805Z,1016.18
2017-06-24T08:47:35.634Z,1016.22
2017-06-24T08:48:37.534Z,1016.23
2017-06-24T08:49:39.423Z,1016.21
2017-06-24T08:50:41.312Z,1016.23
2017-06-24T08:51:55.582Z,1016.19
2017-06-24T08:52:57.553Z,1016.24
2017-06-24T08:53:59.446Z,1016.27
2017-06-24T08:55:01.338Z,1016.31
2017-06-24T08:56:03.165Z,1016.25
2017-06-24T08:57:04.979Z,1016.25
2017-06-24T08:58:06.907Z,1016.20
2017-06-24T08:59:08.790Z,1016.13
2017-06-24T09:00:10.682Z,1016.20
2017-06-24T09:01:24.904Z,1016.10
2017-06-24T09:02:26.837Z,1016.07
2017-06-24T09:03:28.711Z,1015.94
2017-06-24T09:04:30.601Z,1015.86
2017-06-24T09:05:32.535Z,1015.91
2017-06-24T09:06:34.356Z,1015.92
2017-06-24T09:07:36.227Z,1015.98
2017-06-24T09:08:38.205Z,1015.94
2017-06-24T09:09:40.095Z,1015.94
2017-06-24T09:10:54.259Z,1015.99
2017-06-24T09:11:56.156Z,1016.00
2017-06-24T09:12:58.050Z,1015.95
2017-06-24T09:13:59.910Z,1016.02
2017-06-24T09:15:01.716Z,1016.01
2017-06-24T09:16:03.529Z,1015.97
2017-06-24T09:17:05.402Z,1015.86
2017-06-24T09:18:07.288Z,1015.83
2017-06-24T09:19:09.176Z,1015.82
2017-06-24T09:20:23.371Z,1015.79
2017-06-24T09:21:25.381Z,1015.77
2017-06-24T09:22:27.285Z,1015.80
2017-06-24T09:23:29.245Z,1015.80
2017-06-24T09:24:31.059Z,1015.78
2017-06-24T09:25:32.889Z,1015.78
2017-06-24T09:26:34.762Z,1015.78
2017-06-24T09:27:36.648Z,1015.78
2017-06-24T09:28:38.546Z,1015.75
2017-06-24T09:29:52.785Z,1015.79
2017-06-24T09:30:54.733Z,1015.90
2017-06-24T09:31:56.673Z,1015.92
2017-06-24T09:32:58.659Z,1015.96
2017-06-24T09:34:00.489Z,1015.90
2017-06-24T09:35:02.326Z,1015.85
2017-06-24T09:36:04.241Z,1015.88
2017-06-24T09:37:06.101Z,1015.93
2017-06-24T09:38:08.000Z,1015.93
2017-06-24T09:39:22.145Z,1015.83
2017-06-24T09:40:24.015Z,1015.84
2017-06-24T09:41:25.909Z,1015.83
2017-06-24T09:42:27.770Z,1015.82
2017-06-24T09:43:29.584Z,1015.73
2017-06-24T09:44:31.395Z,1015.65
2017-06-24T09:45:33.301Z,1015.63
2017-06-24T09:46:35.169Z,1015.62
2017-06-24T09:47:37.054Z,1015.62
2017-06-24T09:48:51.218Z,1015.61
2017-06-24T09:49:53.105Z,1015.67
2017-06-24T09:50:55.174Z,1015.72
2017-06-24T09:51:57.028Z,1015.74
2017-06-24T09:52:58.839Z,1015.79
2017-06-24T09:54:00.643Z,1015.82
2017-06-24T09:55:02.522Z,1015.80
2017-06-24T09:56:04.361Z,1015.76
2017-06-24T09:57:06.254Z,1015.70
2017-06-24T09:58:20.464Z,1015.65
2017-06-24T09:59:22.354Z,1015.58
2017-06-24T10:00:24.246Z,1015.57
2017-06-24T10:01:26.133Z,1015.55
2017-06-24T10:02:27.974Z,1015.55
2017-06-24T10:03:29.960Z,1015.47
2017-06-24T10:04:31.850Z,1015.50
2017-06-24T10:05:33.801Z,1015.51
2017-06-24T10:06:35.688Z,1015.48
2017-06-24T10:07:49.835Z,1015.49
2017-06-24T10:08:51.725Z,1015.52
2017-06-24T10:09:53.614Z,1015.51
2017-06-24T10:10:55.502Z,1015.52
2017-06-24T10:11:57.335Z,1015.49
2017-06-24T10:12:59.148Z,1015.43
2017-06-24T10:14:01.012Z,1015.45
2017-06-24T10:15:02.878Z,1015.40
2017-06-24T10:16:04.755Z,1015.38
2017-06-24T10:17:18.913Z,1015.40
2017-06-24T10:18:20.778Z,1015.38
2017-06-24T10:19:22.651Z,1015.39
2017-06-24T10:20:24.551Z,1015.33
2017-06-24T10:21:26.396Z,1015.38
2017-06-24T10:22:28.492Z,1015.38
2017-06-24T10:23:30.377Z,1015.34
2017-06-24T10:24:32.364Z,1015.37
2017-06-24T10:25:34.255Z,1015.33
2017-06-24T10:26:48.421Z,1015.33
2017-06-24T10:27:50.382Z,1015.37
2017-06-24T10:28:52.243Z,1015.35
2017-06-24T10:29:54.117Z,1015.34
2017-06-24T10:30:55.947Z,1015.30
2017-06-24T10:31:57.775Z,1015.28
2017-06-24T10:32:59.667Z,1015.29
2017-06-24T10:34:01.535Z,1015.36
2017-06-24T10:35:03.449Z,1015.41
2017-06-24T10:36:17.610Z,1015.35
2017-06-24T10:37:19.474Z,1015.38
2017-06-24T10:38:21.361Z,1015.38
2017-06-24T10:39:23.233Z,1015.38
2017-06-24T10:40:25.060Z,1015.33
2017-06-24T10:41:26.871Z,1015.26
2017-06-24T10:42:28.759Z,1015.28
2017-06-24T10:43:30.651Z,1015.28
2017-06-24T10:44:32.519Z,1015.30
2017-06-24T10:45:46.675Z,1015.34
2017-06-24T10:46:48.564Z,1015.31
2017-06-24T10:47:50.523Z,1015.34
2017-06-24T10:48:52.479Z,1015.34
2017-06-24T10:49:54.287Z,1015.33
2017-06-24T10:50:56.111Z,1015.45
2017-06-24T10:51:58.001Z,1015.48
2017-06-24T10:52:59.920Z,1015.52
2017-06-24T10:54:01.848Z,1015.57
2017-06-24T10:55:16.111Z,1015.52
2017-06-24T10:56:17.974Z,1015.42
2017-06-24T10:57:19.866Z,1015.43
2017-06-24T10:58:21.756Z,1015.45
2017-06-24T10:59:23.645Z,1015.37
2017-06-24T11:00:25.542Z,1015.29
2017-06-24T11:01:27.492Z,1015.16
2017-06-24T11:02:29.411Z,1015.12
2017-06-24T11:03:31.285Z,1015.18
2017-06-24T11:04:45.436Z,1015.12
2017-06-24T11:05:47.327Z,1015.13
2017-06-24T11:06:49.211Z,1015.20
2017-06-24T11:07:51.085Z,1015.14
2017-06-24T11:08:52.916Z,1015.15
2017-06-24T11:09:54.747Z,1015.18
2017-06-24T11:10:56.636Z,1015.16
2017-06-24T11:11:58.529Z,1015.14
2017-06-24T11:13:00.423Z,1015.16
2017-06-24T11:14:14.583Z,1015.15
2017-06-24T11:15:16.487Z,1015.18
2017-06-24T11:16:18.340Z,1015.10
2017-06-24T11:17:20.231Z,1015.15
2017-06-24T11:18:22.044Z,1015.14
2017-06-24T11:19:23.873Z,1015.11
2017-06-24T11:20:25.765Z,1015.13
2017-06-24T11:21:27.660Z,1015.07
2017-06-24T11:22:29.552Z,1015.12
2017-06-24T11:23:43.730Z,1015.10
2017-06-24T11:24:45.589Z,1015.04
2017-06-24T11:25:47.459Z,1015.09
2017-06-24T11:26:49.341Z,1015.09
2017-06-24T11:27:51.155Z,1015.14
2017-06-24T11:28:52.962Z,1015.09
2017-06-24T11:29:54.854Z,1015.09
2017-06-24T11:30:56.740Z,1015.10
2017-06-24T11:31:58.616Z,1015.06
2017-06-24T11:33:12.780Z,1015.06
2017-06-24T11:34:14.672Z,1015.02
2017-06-24T11:35:16.559Z,1015.05
2017-06-24T11:36:18.431Z,1015.07
2017-06-24T11:37:20.264Z,1015.13
2017-06-24T11:38:22.090Z,1015.03
2017-06-24T11:39:23.964Z,1015.07
2017-06-24T11:40:25.853Z,1015.02
2017-06-24T11:41:27.751Z,1015.02
2017-06-24T11:42:41.903Z,1015.04
2017-06-24T11:43:43.780Z,1015.08
2017-06-24T11:44:45.645Z,1015.12
2017-06-24T11:45:47.520Z,1015.06
2017-06-24T11:46:49.343Z,1014.96
2017-06-24T11:47:51.157Z,1014.90
2017-06-24T11:48:53.049Z,1014.93
2017-06-24T11:49:54.941Z,1014.93
2017-06-24T11:50:56.831Z,1014.89
2017-06-24T11:52:10.994Z,1014.85
2017-06-24T11:53:12.865Z,1014.85
2017-06-24T11:54:14.756Z,1014.88
2017-06-24T11:55:16.659Z,1014.91
2017-06-24T11:56:18.470Z,1014.94
2017-06-24T11:57:20.293Z,1014.99
2017-06-24T11:58:22.159Z,1015.03
2017-06-24T11:59:24.028Z,1015.11
2017-06-24T12:00:25.920Z,1015.05
2017-06-24T12:01:40.064Z,1014.96
2017-06-24T12:02:41.958Z,1014.95
2017-06-24T12:03:43.842Z,1014.87
2017-06-24T12:04:45.712Z,1014.98
2017-06-24T12:05:47.542Z,1015.03
2017-06-24T12:06:49.349Z,1015.05
2017-06-24T12:07:51.180Z,1015.09
2017-06-24T12:08:52.989Z,1015.10
2017-06-24T12:09:54.827Z,1015.14
2017-06-24T12:11:08.991Z,1015.05
2017-06-24T12:12:10.881Z,1014.90
2017-06-24T12:13:12.759Z,1014.83
2017-06-24T12:14:14.644Z,1014.81
2017-06-24T12:15:16.447Z,1014.80
2017-06-24T12:16:18.264Z,1014.75
2017-06-24T12:17:20.157Z,1014.75
2017-06-24T12:18:22.041Z,1014.72
2017-06-24T12:19:23.918Z,1014.72
2017-06-24T12:20:38.083Z,1014.73
2017-06-24T12:21:39.968Z,1014.81
2017-06-24T12:22:41.838Z,1014.81
2017-06-24T12:23:43.702Z,1014.82
2017-06-24T12:24:45.513Z,1014.89
2017-06-24T12:25:47.345Z,1014.91
2017-06-24T12:26:49.239Z,1014.89
2017-06-24T12:27:51.103Z,1014.87
2017-06-24T12:28:52.976Z,1014.89
2017-06-24T12:30:07.138Z,1014.97
2017-06-24T12:31:09.008Z,1014.95
2017-06-24T12:32:10.902Z,1014.95
2017-06-24T12:33:12.790Z,1014.89
2017-06-24T12:34:14.596Z,1014.91
2017-06-24T12:35:16.412Z,1014.87
2017-06-24T12:36:18.302Z,1014.87
2017-06-24T12:37:20.175Z,1014.98
2017-06-24T12:38:22.036Z,1014.96
2017-06-24T12:39:36.184Z,1015.01
2017-06-24T12:40:38.056Z,1015.03
2017-06-24T12:41:39.945Z,1014.96
2017-06-24T12:42:41.807Z,1014.95
2017-06-24T12:43:43.633Z,1014.87
2017-06-24T12:44:45.461Z,1014.87